sensor_id;sensor_type;location;lat;lon;timestamp;P1;durP1;ratioP1;P2;durP2;ratioP2
76749;SDS011;66447;35.844;14.468;2023-11-21T00:00:41;9.05;;;2.05;;
76749;SDS011;66447;35.844;14.468;2023-11-21T00:15:42;7.50;;;1.33;;
76749;SDS011;66447;35.844;14.468;2023-11-21T00:30:43;7.05;;;1.27;;
76749;SDS011;66447;35.844;14.468;2023-11-21T00:45:43;7.20;;;1.50;;
76749;SDS011;66447;35.844;14.468;2023-11-21T01:00:44;8.05;;;1.40;;
76749;SDS011;66447;35.844;14.468;2023-11-21T01:15:45;8.63;;;1.90;;
76749;SDS011;66447;35.844;14.468;2023-11-21T01:30:46;7.65;;;1.30;;
76749;SDS011;66447;35.844;14.468;2023-11-21T01:45:48;5.15;;;0.95;;
76749;SDS011;66447;35.844;14.468;2023-11-21T02:00:49;7.35;;;1.48;;
76749;SDS011;66447;35.844;14.468;2023-11-21T02:15:51;8.15;;;1.45;;
76749;SDS011;66447;35.844;14.468;2023-11-21T02:30:54;7.25;;;1.48;;
76749;SDS011;66447;35.844;14.468;2023-11-21T02:45:56;7.43;;;1.63;;
76749;SDS011;66447;35.844;14.468;2023-11-21T03:00:57;6.07;;;1.27;;
76749;SDS011;66447;35.844;14.468;2023-11-21T03:15:58;6.70;;;1.57;;
76749;SDS011;66447;35.844;14.468;2023-11-21T03:30:59;8.38;;;1.88;;
76749;SDS011;66447;35.844;14.468;2023-11-21T03:46:00;3.88;;;1.10;;
76749;SDS011;66447;35.844;14.468;2023-11-21T04:01:01;5.68;;;1.42;;
76749;SDS011;66447;35.844;14.468;2023-11-21T04:16:02;4.67;;;1.47;;
76749;SDS011;66447;35.844;14.468;2023-11-21T04:31:03;5.80;;;1.30;;
76749;SDS011;66447;35.844;14.468;2023-11-21T04:46:04;9.33;;;1.73;;
76749;SDS011;66447;35.844;14.468;2023-11-21T05:01:07;6.40;;;1.40;;
76749;SDS011;66447;35.844;14.468;2023-11-21T05:16:08;5.70;;;1.20;;
76749;SDS011;66447;35.844;14.468;2023-11-21T05:31:08;12.35;;;2.15;;
76749;SDS011;66447;35.844;14.468;2023-11-21T05:46:10;7.93;;;1.50;;
76749;SDS011;66447;35.844;14.468;2023-11-21T06:01:11;9.35;;;1.80;;
76749;SDS011;66447;35.844;14.468;2023-11-21T06:16:13;5.57;;;1.90;;
76749;SDS011;66447;35.844;14.468;2023-11-21T06:31:16;12.73;;;2.20;;
76749;SDS011;66447;35.844;14.468;2023-11-21T06:46:18;11.27;;;2.13;;
76749;SDS011;66447;35.844;14.468;2023-11-21T07:01:20;10.82;;;2.20;;
76749;SDS011;66447;35.844;14.468;2023-11-21T07:16:21;5.88;;;1.73;;
76749;SDS011;66447;35.844;14.468;2023-11-21T07:31:22;11.68;;;2.35;;
76749;SDS011;66447;35.844;14.468;2023-11-21T07:46:24;6.90;;;1.98;;
76749;SDS011;66447;35.844;14.468;2023-11-21T08:01:26;9.48;;;1.40;;
76749;SDS011;66447;35.844;14.468;2023-11-21T08:16:28;11.73;;;2.17;;
76749;SDS011;66447;35.844;14.468;2023-11-21T08:31:29;6.97;;;1.55;;
76749;SDS011;66447;35.844;14.468;2023-11-21T08:46:30;12.03;;;1.77;;
76749;SDS011;66447;35.844;14.468;2023-11-21T09:01:31;13.13;;;1.85;;
76749;SDS011;66447;35.844;14.468;2023-11-21T09:16:33;10.53;;;1.70;;
76749;SDS011;66447;35.844;14.468;2023-11-21T09:31:34;10.63;;;2.03;;
76749;SDS011;66447;35.844;14.468;2023-11-21T09:46:35;10.43;;;1.77;;
76749;SDS011;66447;35.844;14.468;2023-11-21T10:01:39;10.87;;;1.60;;
76749;SDS011;66447;35.844;14.468;2023-11-21T10:16:42;10.13;;;1.80;;
76749;SDS011;66447;35.844;14.468;2023-11-21T10:31:49;10.37;;;1.77;;
76749;SDS011;66447;35.844;14.468;2023-11-21T10:46:51;9.87;;;3.13;;
76749;SDS011;66447;35.844;14.468;2023-11-21T11:01:57;14.57;;;2.13;;
76749;SDS011;66447;35.844;14.468;2023-11-21T11:17:00;8.13;;;1.33;;
76749;SDS011;66447;35.844;14.468;2023-11-21T11:47:25;10.17;;;1.70;;
76749;SDS011;66447;35.844;14.468;2023-11-21T12:02:38;14.23;;;1.70;;
76749;SDS011;66447;35.844;14.468;2023-11-21T12:17:40;10.37;;;1.50;;
76749;SDS011;66447;35.844;14.468;2023-11-21T12:32:43;10.83;;;1.33;;
76749;SDS011;66447;35.844;14.468;2023-11-21T12:47:51;7.97;;;1.37;;
76749;SDS011;66447;35.844;14.468;2023-11-21T13:02:55;10.03;;;1.50;;
76749;SDS011;66447;35.844;14.468;2023-11-21T13:18:00;9.57;;;1.77;;
76749;SDS011;66447;35.844;14.468;2023-11-21T13:33:01;7.77;;;1.70;;
76749;SDS011;66447;35.844;14.468;2023-11-21T13:48:07;6.67;;;1.40;;
76749;SDS011;66447;35.844;14.468;2023-11-21T14:03:13;9.07;;;1.80;;
76749;SDS011;66447;35.844;14.468;2023-11-21T14:18:46;12.20;;;2.10;;
76749;SDS011;66447;35.844;14.468;2023-11-21T14:34:00;9.48;;;1.95;;
76749;SDS011;66447;35.844;14.468;2023-11-21T14:49:06;10.00;;;2.50;;
76749;SDS011;66447;35.844;14.468;2023-11-21T15:04:20;13.02;;;2.85;;
76749;SDS011;66447;35.844;14.468;2023-11-21T15:19:36;9.00;;;2.92;;
76749;SDS011;66447;35.844;14.468;2023-11-21T15:34:37;16.98;;;2.70;;
76749;SDS011;66447;35.844;14.468;2023-11-21T15:49:39;15.50;;;3.03;;
76749;SDS011;66447;35.844;14.468;2023-11-21T16:04:40;16.45;;;4.05;;
76749;SDS011;66447;35.844;14.468;2023-11-21T16:19:42;8.15;;;3.53;;
76749;SDS011;66447;35.844;14.468;2023-11-21T16:34:43;11.15;;;4.50;;
76749;SDS011;66447;35.844;14.468;2023-11-21T16:49:45;13.60;;;4.72;;
76749;SDS011;66447;35.844;14.468;2023-11-21T17:04:46;14.30;;;5.13;;
76749;SDS011;66447;35.844;14.468;2023-11-21T17:19:49;13.32;;;4.40;;
76749;SDS011;66447;35.844;14.468;2023-11-21T17:34:50;20.02;;;5.93;;
76749;SDS011;66447;35.844;14.468;2023-11-21T17:49:51;14.20;;;4.72;;
76749;SDS011;66447;35.844;14.468;2023-11-21T18:04:55;12.30;;;4.55;;
76749;SDS011;66447;35.844;14.468;2023-11-21T18:19:57;14.15;;;4.28;;
76749;SDS011;66447;35.844;14.468;2023-11-21T18:34:58;8.97;;;3.77;;
76749;SDS011;66447;35.844;14.468;2023-11-21T18:49:59;11.85;;;4.10;;
76749;SDS011;66447;35.844;14.468;2023-11-21T19:05:00;15.57;;;3.03;;
76749;SDS011;66447;35.844;14.468;2023-11-21T19:20:06;14.48;;;3.97;;
76749;SDS011;66447;35.844;14.468;2023-11-21T19:35:08;10.18;;;3.72;;
76749;SDS011;66447;35.844;14.468;2023-11-21T19:50:10;11.38;;;3.70;;
76749;SDS011;66447;35.844;14.468;2023-11-21T20:05:12;15.98;;;4.50;;
76749;SDS011;66447;35.844;14.468;2023-11-21T20:20:15;8.82;;;3.55;;
76749;SDS011;66447;35.844;14.468;2023-11-21T20:35:19;9.97;;;3.37;;
76749;SDS011;66447;35.844;14.468;2023-11-21T20:50:20;12.90;;;3.90;;
76749;SDS011;66447;35.844;14.468;2023-11-21T21:05:22;11.80;;;4.35;;
76749;SDS011;66447;35.844;14.468;2023-11-21T21:20:24;14.30;;;4.38;;
76749;SDS011;66447;35.844;14.468;2023-11-21T21:35:25;11.43;;;4.07;;
76749;SDS011;66447;35.844;14.468;2023-11-21T21:50:28;12.27;;;4.57;;
76749;SDS011;66447;35.844;14.468;2023-11-21T22:05:29;12.57;;;4.35;;
76749;SDS011;66447;35.844;14.468;2023-11-21T22:20:30;8.63;;;3.57;;
76749;SDS011;66447;35.844;14.468;2023-11-21T22:35:31;14.00;;;3.83;;
76749;SDS011;66447;35.844;14.468;2023-11-21T22:50:33;12.88;;;4.05;;
76749;SDS011;66447;35.844;14.468;2023-11-21T23:05:34;15.27;;;4.57;;
76749;SDS011;66447;35.844;14.468;2023-11-21T23:20:35;15.65;;;4.70;;
76749;SDS011;66447;35.844;14.468;2023-11-21T23:50:37;18.55;;;4.40;;
